• Join FlightAware (Why Join?)
  • Login
  • US Flag 
03:54PM EDT


 

Airport Tracker/Info


-or-


 

Live Flight TrackerFlight Track Log ✈ FDX1254 ✈ 29-Apr-2013 ✈ KPVD - KFWA

Flight Track Log - Related Links

Times and Time Zones

All times are in EDT time to prevent confusion due to time zone crossing. See the FDX1254 flight status page for this flight to view local times or setup timezone preferences in your user account.

Time Position Orientation Groundspeed Altitude Reporting Facility
EDT Latitude Longitude Course Direction KTS MPH feet Rate Location/Type
08:51PM 41.7540 -71.5840 302° West 266 306 7,200  Level FlightAware
08:52PM 41.7750 -71.6340 299° West 277 319 9,300 2,760 Climbing FlightAware
08:52PM 41.8010 -71.6980 299° West 317 365 10,700 1,980 Climbing FlightAware
08:53PM 41.8320 -71.7740 299° West 363 418 12,000 2,520 Climbing FlightAware
08:54PM 41.8670 -71.8610 298° West 374 430 14,300 3,060 Climbing FlightAware
08:54PM 41.9000 -71.9470 297° West 385 443 16,400 3,000 Climbing FlightAware
08:55PM 41.9260 -72.0430 290° West 396 456 18,300 1,560 Climbing FlightAware
08:56PM 41.9340 -72.1200 278° West 397 457 18,500 2,400 Climbing FlightAware
08:57PM 41.9410 -72.3020 273° West 426 490 23,600 3,180 Climbing FlightAware
08:58PM 41.9500 -72.4740 274° West 440 506 25,500 1,800 Climbing FlightAware
08:58PM 41.9540 -72.5700 273° West 442 509 26,000 360 Climbing FlightAware
08:59PM 41.9580 -72.6640 273° West 442 509 26,000 1,920 Level FlightAware
09:00PM 41.9620 -72.7250 275° West 447 514 28,800 1,920 Climbing FlightAware
09:01PM 41.9660 -72.8200 273° West 447 514 28,800 3,960 Level FlightAware
09:01PM 41.9587 -73.0794 268° West 435 501 34,600 5,280 Climbing FlightAware ADS-B
09:02PM 41.9431 -73.1650 256° West 431 496 35,900 2,160 Climbing FlightAware ADS-B
09:03PM 41.9200 -73.2890 256° West 428 493 37,600 1,980 Climbing FlightAware
09:03PM 41.9088 -73.3457 255° West 428 493 38,300 1,740 Climbing FlightAware ADS-B
09:04PM 41.8923 -73.4327 256° West 426 490 39,200 1,500 Climbing FlightAware ADS-B
09:04PM 41.8773 -73.5100 255° West 429 494 39,900 780 Climbing FlightAware ADS-B
09:05PM 41.8621 -73.5902 256° West 432 497 40,000 60 Climbing FlightAware ADS-B
09:05PM 41.8467 -73.6677 255° West 433 498 40,000  Level FlightAware ADS-B
09:06PM 41.8314 -73.7480 256° West 432 497 40,000  Level FlightAware ADS-B
09:06PM 41.8147 -73.8334 255° West 433 498 40,000  Level FlightAware ADS-B
09:07PM 41.7995 -73.9112 255° West 433 498 40,000  Level FlightAware ADS-B
09:07PM 41.7834 -73.9941 255° West 433 498 40,000  Level FlightAware ADS-B
09:08PM 41.7677 -74.0717 255° West 433 498 40,000  Level FlightAware ADS-B
09:08PM 41.7522 -74.1522 256° West 434 499 40,000  Level FlightAware ADS-B
09:09PM 41.7363 -74.2301 255° West 434 499 40,000  Level FlightAware ADS-B
09:09PM 41.7204 -74.3106 255° West 435 501 40,000  Level FlightAware ADS-B
09:10PM 41.7045 -74.3911 255° West 436 502 40,000  Level FlightAware ADS-B
09:10PM 41.6888 -74.4692 255° West 437 503 40,000  Level FlightAware ADS-B
09:11PM 41.6723 -74.5499 255° West 438 504 40,000  Level FlightAware ADS-B
09:11PM 41.6563 -74.6285 255° West 439 505 40,000  Level FlightAware ADS-B
09:12PM 41.6396 -74.7098 255° West 441 507 40,000  Level FlightAware ADS-B
09:12PM 41.6234 -74.7911 255° West 440 506 40,000  Level FlightAware ADS-B
09:13PM 41.6072 -74.8699 255° West 442 509 40,000  Level FlightAware ADS-B
09:13PM 41.5903 -74.9512 254° West 442 509 40,000  Level FlightAware ADS-B
09:14PM 41.5740 -75.0300 255° West 443 510 40,000  Level FlightAware ADS-B
09:14PM 41.5572 -75.1115 255° West 443 510 40,000  Level FlightAware ADS-B
09:15PM 41.5392 -75.1981 255° West 443 510 40,000  Level FlightAware ADS-B
09:15PM 41.5220 -75.2799 254° West 443 510 40,000  Level FlightAware ADS-B
09:16PM 41.5050 -75.3613 254° West 444 511 40,000  Level FlightAware ADS-B
09:16PM 41.4877 -75.4431 254° West 445 512 40,000  Level FlightAware ADS-B
09:17PM 41.4705 -75.5249 254° West 446 513 40,000  Level FlightAware ADS-B
09:17PM 41.4534 -75.6042 254° West 447 514 40,000  Level FlightAware ADS-B
09:18PM 41.4363 -75.6838 254° West 448 516 40,000  Level FlightAware ADS-B
09:19PM 41.4184 -75.7686 254° West 448 516 40,000  Level FlightAware ADS-B
09:19PM 41.3980 -75.8639 254° West 448 516 40,000  Level FlightAware ADS-B
09:20PM 41.3804 -75.9460 254° West 448 516 40,000  Level FlightAware ADS-B
09:20PM 41.3622 -76.0281 254° West 448 516 40,000  Level FlightAware ADS-B
09:21PM 41.3449 -76.1074 254° West 448 516 40,000  Level FlightAware ADS-B
09:21PM 41.3267 -76.1919 254° West 448 516 40,000  Level FlightAware ADS-B
09:22PM 41.3093 -76.2712 254° West 448 516 40,000  Level FlightAware ADS-B
09:22PM 41.2909 -76.3555 254° West 447 514 40,000  Level FlightAware ADS-B
09:23PM 41.2733 -76.4343 253° West 446 513 40,000  Level FlightAware ADS-B
09:23PM 41.2527 -76.5261 253° West 446 513 40,000  Level FlightAware ADS-B
09:24PM 41.2343 -76.6100 254° West 445 512 40,000  Level FlightAware ADS-B
09:24PM 41.2164 -76.6909 254° West 444 511 40,000  Level FlightAware ADS-B
09:25PM 41.1970 -76.7768 253° West 443 510 40,000  Level FlightAware ADS-B
09:25PM 41.1782 -76.8604 253° West 444 511 40,000  Level FlightAware ADS-B
09:26PM 41.1593 -76.9437 253° West 445 512 40,000  Level FlightAware ADS-B
09:26PM 41.1440 -77.0110 253° West 444 511 40,000  Level FlightAware
09:27PM 41.1322 -77.0637 253° West 445 512 40,000  Level FlightAware ADS-B
09:28PM 41.0910 -77.2440 253° West 445 512 40,000  Level FlightAware
09:29PM 41.0680 -77.3450 253° West 443 510 40,000  Level FlightAware
09:29PM 41.0390 -77.4690 253° West 442 509 40,000  Level FlightAware
09:30PM 41.0160 -77.5680 253° West 440 506 40,000  Level FlightAware
09:31PM 40.9920 -77.6680 252° West 439 505 40,000  Level FlightAware
09:31PM 40.9650 -77.7860 253° West 437 503 40,000  Level FlightAware
09:32PM 40.9430 -77.8770 252° West 436 502 40,000  Level FlightAware
09:33PM 40.9200 -77.9900 255° West 434 499 40,000  Level FlightAware
09:34PM 40.9120 -78.1110 265° West 433 498 40,000  Level FlightAware
09:34PM 40.9090 -78.2170 268° West 432 497 40,000  Level FlightAware
09:35PM 40.9050 -78.3380 268° West 432 497 40,000  Level FlightAware
09:35PM 40.9020 -78.4110 267° West 432 497 40,000  Level FlightAware
09:36PM 40.8980 -78.5450 268° West 431 496 40,000  Level FlightAware
09:37PM 40.8930 -78.6640 267° West 429 494 40,000  Level FlightAware
09:38PM 40.8880 -78.8040 267° West 424 488 40,000  Level FlightAware
09:39PM 40.8830 -78.9220 267° West 422 486 40,000  Level FlightAware
09:39PM 40.8790 -79.0150 267° West 421 484 40,000  Level FlightAware
09:40PM 40.8750 -79.1250 267° West 420 483 40,000  Level FlightAware
09:41PM 40.8710 -79.2250 267° West 419 482 40,000  Level FlightAware
09:41PM 40.8660 -79.3450 267° West 419 482 40,000  Level FlightAware
09:42PM 40.8620 -79.4290 266° West 419 482 40,000  Level FlightAware
09:43PM 40.8560 -79.5670 267° West 420 483 40,000  Level FlightAware
09:44PM 40.8510 -79.6650 266° West 421 484 40,000  Level FlightAware
09:44PM 40.8460 -79.7850 267° West 422 486 40,000  Level FlightAware
09:45PM 40.8410 -79.8860 266° West 422 486 40,000  Level FlightAware
09:46PM 40.8360 -79.9910 266° West 423 487 40,000  Level FlightAware
09:46PM 40.8330 -80.1070 268° West 425 489 40,000  Level FlightAware
09:47PM 40.8360 -80.2110 272° West 426 490 40,000  Level FlightAware
09:48PM 40.8410 -80.3250 273° West 427 491 40,000  Level FlightAware
09:48PM 40.8470 -80.4270 274° West 427 491 40,000  Level FlightAware
09:49PM 40.8530 -80.5330 274° West 427 491 40,000  Level FlightAware
09:50PM 40.8590 -80.6550 274° West 426 490 40,000  Level FlightAware
09:51PM 40.8630 -80.7560 273° West 425 489 40,000  Level FlightAware
09:51PM 40.8680 -80.8760 273° West 424 488 40,000  Level FlightAware
09:52PM 40.8730 -80.9740 274° West 423 487 40,000  Level FlightAware
09:53PM 40.8770 -81.0770 273° West 422 486 40,000  Level FlightAware
09:53PM 40.8820 -81.1980 273° West 421 484 40,000  Level FlightAware
09:54PM 40.8860 -81.2980 273° West 420 483 40,000  Level FlightAware
09:55PM 40.8910 -81.4100 273° West 420 483 40,000  Level FlightAware
09:55PM 40.8950 -81.5180 273° West 421 484 40,000  Level FlightAware
09:56PM 40.9000 -81.6340 273° West 420 483 40,000  Level FlightAware
09:57PM 40.9040 -81.7360 273° West 419 482 40,000  Level FlightAware
09:58PM 40.9070 -81.8360 272° West 419 482 40,000  Level FlightAware
09:58PM 40.9110 -81.9480 273° West 417 480 40,000  Level FlightAware
09:59PM 40.9150 -82.0520 273° West 416 479 40,000  Level FlightAware
10:00PM 40.9180 -82.1510 272° West 416 479 40,000  Level FlightAware
10:00PM 40.9220 -82.2680 273° West 416 479 40,000  Level FlightAware
10:01PM 40.9250 -82.3490 273° West 417 480 40,000 -600 Level FlightAware
10:02PM 40.9290 -82.4870 272° West 419 482 39,200 -1,200 Descending FlightAware
10:02PM 40.9320 -82.5850 272° West 424 488 38,200 -900 Descending FlightAware
10:03PM 40.9350 -82.6870 272° West 412 474 38,000 -180 Descending FlightAware
10:04PM 40.9380 -82.8000 272° West 409 471 38,000  Level FlightAware
10:05PM 40.9410 -82.9020 272° West 410 472 38,000  Level FlightAware
10:05PM 40.9440 -83.0100 272° West 413 475 38,000 -540 Level FlightAware
10:06PM 40.9460 -83.1190 271° West 417 480 37,300 -1,800 Descending FlightAware
10:07PM 40.9490 -83.2220 272° West 422 486 35,600 -3,000 Descending FlightAware
10:07PM 40.9510 -83.3220 272° West 433 498 33,300 -3,420 Descending FlightAware
10:08PM 40.9540 -83.4410 272° West 436 502 30,800 -2,220 Descending FlightAware
10:09PM 40.9570 -83.5660 272° West 435 501 30,000 -960 Descending FlightAware
10:09PM 40.9590 -83.6670 272° West 425 489 29,500 -3,600 Descending FlightAware
10:10PM 40.9610 -83.7790 271° West 452 520 25,200 -5,340 Descending FlightAware
10:11PM 40.9630 -83.8970 271° West 421 484 22,000 -4,500 Descending FlightAware
10:12PM 40.9650 -83.9970 272° West 402 463 18,900 -4,380 Descending FlightAware
10:12PM 40.9670 -84.1020 271° West 385 443 15,800 -3,840 Descending FlightAware
10:13PM 40.9680 -84.1970 271° West 373 429 13,500 -2,880 Descending FlightAware
10:14PM 40.9690 -84.2850 271° West 361 415 12,000 -1,560 Descending FlightAware
10:14PM 40.9710 -84.3770 272° West 316 364 11,300 -720 Descending FlightAware
10:15PM 40.9720 -84.4510 271° West 279 321 11,000 -900 Descending FlightAware
10:16PM 40.9790 -84.5270 277° West 268 308 10,100 -1,500 Descending FlightAware
10:16PM 40.9890 -84.5640 290° West 273 314 9,300 -1,980 Descending FlightAware
10:17PM 41.0020 -84.6120 290° West 278 320 8,300 -1,620 Descending FlightAware
10:17PM 41.0150 -84.6610 289° West 281 323 7,700 -1,320 Descending FlightAware
10:18PM 41.0230 -84.6920 289° West 280 322 7,200 -960 Descending FlightAware
10:18PM 41.0420 -84.7630 290° West 278 320 6,700 -1,500 Descending FlightAware
10:19PM 41.0561 -84.8117 290° West 279 321 5,300 -1,680 Descending Chicago Center
10:20PM 41.0814 -84.9075 289° West 278 320 4,100 -840 Descending Chicago Center
10:21PM 41.1003 -84.9881 287° West 252 290 3,600 -480 Descending Chicago Center
10:22PM 41.0872 -85.0525 255° West 216 249 3,200 -540 Descending Chicago Center
10:23PM 41.0544 -85.0922 222° Southwest 181 208 2,600 -660 Descending Chicago Center
10:24PM 41.0250 -85.1300 224° Southwest 164 189 1,900 -480 Descending Chicago Center
10:25PM 41.0003 -85.1628 225° Southwest 156 180 1,700 -240 Descending Chicago Center
10:27PM 40.9667 -85.1833 270° West  Level FlightAware Approximate